Time;durP1;ratioP1;P1;durP2;ratioP2;P2;SDS_P1;SDS_P2;PMS_P1;PMS_P2;Temp;Humidity;BMP_temperature;BMP_pressure;BME280_temperature;BME280_humidity;BME280_pressure;Samples;Min_cycle;Max_cycle;Signal;HPM_P1;HPM_P2
2022/09/15 00:02:23;;;;;;;11.20;6.93;;;16.00;99.90;;;;;;5078355;28;20476;-68
2022/09/15 00:04:50;;;;;;;10.88;8.10;;;15.90;99.90;;;;;;5082910;28;20047;-68
2022/09/15 00:07:17;;;;;;;11.13;8.35;;;15.90;99.90;;;;;;5088986;28;20109;-69
2022/09/15 00:09:44;;;;;;;9.73;7.85;;;15.90;99.90;;;;;;5087539;28;20056;-68
2022/09/15 00:12:11;;;;;;;10.20;8.40;;;15.80;99.90;;;;;;5079682;28;20083;-68
2022/09/15 00:14:38;;;;;;;13.88;9.00;;;15.80;99.90;;;;;;5074175;28;20056;-68
2022/09/15 00:17:05;;;;;;;13.88;8.27;;;15.70;99.90;;;;;;5096682;28;20044;-68
2022/09/15 00:19:32;;;;;;;11.02;7.90;;;15.70;99.90;;;;;;5075088;28;20045;-68
2022/09/15 00:21:58;;;;;;;13.32;9.43;;;15.60;99.90;;;;;;5081886;28;20097;-68
2022/09/15 00:24:28;;;;;;;11.45;8.95;;;15.60;99.90;;;;;;5074113;28;20072;-68
2022/09/15 00:26:55;;;;;;;9.75;7.80;;;15.60;99.90;;;;;;5084104;28;20036;-68
2022/09/15 00:29:23;;;;;;;11.70;7.47;;;15.60;99.90;;;;;;5099097;28;20102;-68
2022/09/15 00:31:49;;;;;;;11.70;8.48;;;15.60;99.90;;;;;;5078177;28;20472;-68
2022/09/15 00:34:16;;;;;;;10.75;8.02;;;15.50;99.90;;;;;;5074010;28;20032;-68
2022/09/15 00:36:43;;;;;;;15.35;9.38;;;15.50;99.90;;;;;;5079978;28;20068;-68
2022/09/15 00:39:11;;;;;;;14.55;9.65;;;15.50;99.90;;;;;;5095505;28;20097;-68
2022/09/15 00:41:39;;;;;;;17.08;9.43;;;15.50;99.90;;;;;;5080494;28;20427;-68
2022/09/15 00:44:15;;;;;;;13.07;8.70;;;15.50;99.90;;;;;;5056369;28;20097;-68
2022/09/15 00:46:43;;;;;;;12.45;7.70;;;15.50;99.90;;;;;;5076151;28;20040;-68
2022/09/15 00:49:33;;;;;;;10.40;8.68;;;15.40;99.90;;;;;;5077644;28;20484;-68
2022/09/15 00:52:08;;;;;;;11.95;8.80;;;15.40;99.90;;;;;;5096043;28;20062;-68
2022/09/15 00:54:41;;;;;;;9.43;8.20;;;15.40;99.90;;;;;;5081814;28;20040;-68
2022/09/15 00:57:14;;;;;;;11.27;9.15;;;15.40;99.90;;;;;;5108469;28;20048;-68
2022/09/15 00:59:41;;;;;;;11.55;8.38;;;15.40;99.90;;;;;;5080205;28;20053;-68
2022/09/15 01:02:15;;;;;;;16.88;10.93;;;15.40;99.90;;;;;;5097369;28;20075;-68
2022/09/15 01:04:42;;;;;;;10.80;8.77;;;15.40;99.90;;;;;;5080919;28;20441;-68
2022/09/15 01:07:11;;;;;;;11.68;8.73;;;15.40;99.90;;;;;;5089614;28;20040;-68
2022/09/15 01:09:53;;;;;;;8.80;7.90;;;15.40;99.90;;;;;;5079466;28;20546;-68
2022/09/15 01:12:20;;;;;;;10.68;8.45;;;15.40;99.90;;;;;;5087311;28;20423;-68
2022/09/15 01:14:47;;;;;;;13.20;9.50;;;15.40;99.90;;;;;;5092022;28;20101;-68
2022/09/15 01:17:28;;;;;;;16.77;9.93;;;15.40;99.90;;;;;;5090615;28;20495;-68
2022/09/15 01:19:55;;;;;;;11.25;8.65;;;15.40;99.90;;;;;;5087399;28;20040;-68
2022/09/15 01:22:32;;;;;;;15.43;10.75;;;15.30;99.90;;;;;;5087935;28;20090;-68
2022/09/15 01:25:09;;;;;;;15.68;10.35;;;15.40;99.90;;;;;;5102479;28;20102;-68
2022/09/15 01:28:14;;;;;;;11.32;9.23;;;15.30;99.90;;;;;;5108056;28;20078;-68
2022/09/15 01:30:55;;;;;;;11.85;9.90;;;15.20;99.90;;;;;;5066180;28;20098;-68
2022/09/15 01:33:36;;;;;;;13.55;10.82;;;15.20;99.90;;;;;;5104740;28;20068;-68
2022/09/15 01:36:13;;;;;;;14.15;10.43;;;15.10;99.90;;;;;;5084638;28;20119;-68
2022/09/15 01:39:02;;;;;;;14.13;9.88;;;15.10;99.90;;;;;;5091132;28;20087;-68
2022/09/15 01:41:42;;;;;;;20.25;11.55;;;15.10;99.90;;;;;;5103601;28;20072;-68
2022/09/15 01:44:15;;;;;;;13.68;10.38;;;15.00;99.90;;;;;;5105006;28;20472;-68
2022/09/15 01:46:45;;;;;;;15.88;11.60;;;14.90;99.90;;;;;;5097879;28;20040;-68
2022/09/15 01:49:17;;;;;;;14.23;11.27;;;14.90;99.90;;;;;;5096266;28;20383;-69
2022/09/15 01:51:44;;;;;;;13.50;11.13;;;14.80;99.90;;;;;;5104027;28;20056;-68
2022/09/15 01:54:11;;;;;;;16.25;12.75;;;14.80;99.90;;;;;;5107613;28;20415;-68
2022/09/15 01:56:38;;;;;;;14.60;10.77;;;14.80;99.90;;;;;;5079651;28;20464;-68
2022/09/15 01:59:04;;;;;;;17.85;11.95;;;14.70;99.90;;;;;;5088449;28;20047;-68
2022/09/15 02:01:53;;;;;;;14.50;10.25;;;14.70;99.90;;;;;;5096885;28;20109;-68
2022/09/15 02:04:38;;;;;;;15.98;11.43;;;14.70;99.90;;;;;;5090606;28;20035;-68
2022/09/15 02:07:10;;;;;;;14.38;10.63;;;14.70;99.90;;;;;;5067108;28;20082;-68
2022/09/15 02:10:12;;;;;;;15.82;11.20;;;14.60;99.90;;;;;;5088463;28;20036;-68
2022/09/15 02:12:49;;;;;;;13.82;10.45;;;14.60;99.90;;;;;;5084756;28;20044;-68
2022/09/15 02:15:28;;;;;;;15.13;11.45;;;14.50;99.90;;;;;;5098653;28;20483;-68
2022/09/15 02:17:56;;;;;;;19.20;12.63;;;14.50;99.90;;;;;;5095321;28;20407;-68
2022/09/15 02:20:37;;;;;;;14.95;11.43;;;14.40;99.90;;;;;;5101786;28;20121;-68
2022/09/15 02:23:12;;;;;;;15.77;12.63;;;14.50;99.90;;;;;;5096690;28;20507;-68
2022/09/15 02:25:42;;;;;;;19.00;12.70;;;14.40;99.90;;;;;;5086289;28;20082;-68
2022/09/15 02:28:10;;;;;;;17.85;11.70;;;14.40;99.90;;;;;;5090330;28;20048;-68
2022/09/15 02:30:39;;;;;;;17.90;11.93;;;14.40;99.90;;;;;;5092652;28;20049;-68
2022/09/15 02:33:09;;;;;;;16.70;12.82;;;14.30;99.90;;;;;;5087286;28;20361;-68
2022/09/15 02:35:36;;;;;;;16.08;12.43;;;14.30;99.90;;;;;;5067522;28;20044;-68
2022/09/15 02:38:05;;;;;;;14.68;12.32;;;14.30;99.90;;;;;;5093209;28;20044;-68
2022/09/15 02:40:31;;;;;;;17.98;12.75;;;14.20;99.90;;;;;;5089893;28;20044;-67
2022/09/15 02:43:00;;;;;;;18.58;12.65;;;14.20;99.90;;;;;;5106966;28;20544;-68
2022/09/15 02:45:29;;;;;;;16.87;12.77;;;14.20;99.90;;;;;;5107139;28;20101;-68
2022/09/15 02:47:56;;;;;;;19.63;12.75;;;14.20;99.90;;;;;;5098122;28;20475;-69
2022/09/15 02:50:26;;;;;;;20.75;15.95;;;14.20;99.90;;;;;;5094698;28;20055;-68
2022/09/15 02:52:54;;;;;;;20.00;14.15;;;14.20;99.90;;;;;;5070378;28;20044;-68
2022/09/15 02:55:21;;;;;;;17.90;11.85;;;14.30;99.90;;;;;;5088665;28;20040;-67
2022/09/15 02:57:48;;;;;;;14.30;12.52;;;14.20;99.90;;;;;;5095496;28;20036;-67
2022/09/15 03:00:16;;;;;;;16.83;13.05;;;14.20;99.90;;;;;;5073691;28;20472;-67
2022/09/15 03:02:44;;;;;;;15.27;13.10;;;14.20;99.90;;;;;;5086856;28;20041;-67
2022/09/15 03:05:12;;;;;;;15.80;12.47;;;14.20;99.90;;;;;;5077407;28;20041;-67
2022/09/15 03:07:39;;;;;;;19.77;12.57;;;14.20;99.90;;;;;;5078239;28;20346;-67
2022/09/15 03:10:07;;;;;;;15.50;12.25;;;14.20;99.90;;;;;;5091455;28;20507;-67
2022/09/15 03:12:38;;;;;;;18.38;13.68;;;14.20;99.90;;;;;;5094112;28;20044;-66
2022/09/15 03:15:06;;;;;;;15.75;11.70;;;14.20;99.90;;;;;;5053935;28;20097;-67
2022/09/15 03:17:35;;;;;;;15.00;12.48;;;14.20;99.90;;;;;;5094359;28;20040;-67
2022/09/15 03:20:06;;;;;;;16.40;12.10;;;14.20;99.90;;;;;;5092152;28;20067;-67
2022/09/15 03:22:33;;;;;;;15.73;12.15;;;14.20;99.90;;;;;;5103361;28;20074;-67
2022/09/15 03:25:00;;;;;;;15.23;12.77;;;14.20;99.90;;;;;;5089440;28;20056;-67
2022/09/15 03:27:27;;;;;;;16.85;11.57;;;14.10;99.90;;;;;;5071077;28;20045;-67
2022/09/15 03:29:54;;;;;;;14.95;11.95;;;14.10;99.90;;;;;;5075584;28;20043;-67
2022/09/15 03:32:23;;;;;;;19.98;13.13;;;14.00;99.90;;;;;;5079024;28;20391;-67
2022/09/15 03:34:50;;;;;;;15.23;11.38;;;14.00;99.90;;;;;;5081457;28;20052;-67
2022/09/15 03:37:23;;;;;;;19.08;12.02;;;14.00;99.90;;;;;;5074902;28;20063;-67
2022/09/15 03:39:50;;;;;;;13.85;11.25;;;14.00;99.90;;;;;;5089692;28;20102;-67
2022/09/15 03:42:18;;;;;;;14.68;10.50;;;14.00;99.90;;;;;;5073483;28;20051;-67
2022/09/15 03:44:45;;;;;;;15.63;11.63;;;13.90;99.90;;;;;;5095708;28;20082;-68
2022/09/15 03:47:12;;;;;;;15.20;11.90;;;13.90;99.90;;;;;;5092929;28;20105;-66
2022/09/15 03:49:39;;;;;;;107.05;94.63;;;14.00;99.90;;;;;;5080387;28;20048;-67
2022/09/15 03:52:05;;;;;;;37.60;29.98;;;14.00;99.90;;;;;;5075729;28;20044;-67
2022/09/15 03:54:34;;;;;;;20.92;17.40;;;14.00;99.90;;;;;;5075563;28;20048;-66
2022/09/15 03:57:02;;;;;;;20.15;13.40;;;14.00;99.90;;;;;;5072413;28;20045;-67
2022/09/15 03:59:29;;;;;;;17.90;12.95;;;14.00;99.90;;;;;;5074313;28;20041;-67
2022/09/15 04:01:56;;;;;;;16.40;12.35;;;14.00;99.90;;;;;;5056724;28;20125;-66
2022/09/15 04:04:23;;;;;;;14.70;11.63;;;14.00;99.90;;;;;;5073107;28;20040;-66
2022/09/15 04:06:50;;;;;;;15.30;11.13;;;13.90;99.90;;;;;;5074822;28;20400;-66
2022/09/15 04:09:17;;;;;;;15.70;11.80;;;13.90;99.90;;;;;;5074526;28;20049;-67
2022/09/15 04:11:46;;;;;;;13.30;11.80;;;13.90;99.90;;;;;;5089383;28;20083;-67
2022/09/15 04:14:13;;;;;;;17.45;12.15;;;13.90;99.90;;;;;;5098003;28;20052;-67
2022/09/15 04:16:40;;;;;;;14.27;11.25;;;13.90;99.90;;;;;;5093338;28;20486;-67
2022/09/15 04:19:07;;;;;;;13.02;10.60;;;13.90;99.90;;;;;;5084713;28;20056;-67
2022/09/15 04:21:34;;;;;;;15.00;12.50;;;13.90;99.90;;;;;;5072536;28;20060;-66
2022/09/15 04:24:03;;;;;;;17.05;11.48;;;13.90;99.90;;;;;;5074862;28;20071;-66
2022/09/15 04:26:32;;;;;;;15.43;11.27;;;13.90;99.90;;;;;;5107017;28;20527;-66
2022/09/15 04:28:59;;;;;;;18.75;10.77;;;13.90;99.90;;;;;;5092705;28;20044;-66
2022/09/15 04:31:30;;;;;;;15.90;11.02;;;13.90;99.90;;;;;;5074981;28;20052;-66
2022/09/15 04:33:58;;;;;;;13.10;10.35;;;13.80;99.90;;;;;;5074229;28;20377;-66
2022/09/15 04:36:26;;;;;;;14.57;12.57;;;13.80;99.90;;;;;;5091864;28;20505;-66
2022/09/15 04:38:54;;;;;;;15.73;11.38;;;13.80;99.90;;;;;;5092448;28;20043;-66
2022/09/15 04:41:20;;;;;;;19.88;11.05;;;13.80;99.90;;;;;;5093903;28;20048;-66
2022/09/15 04:43:47;;;;;;;23.40;13.23;;;13.80;99.90;;;;;;5074833;28;20051;-67
2022/09/15 04:46:15;;;;;;;13.80;10.20;;;13.80;99.90;;;;;;5083575;28;20101;-66
2022/09/15 04:48:44;;;;;;;17.80;11.07;;;13.80;99.90;;;;;;5075493;28;20471;-66
2022/09/15 04:51:14;;;;;;;15.00;10.83;;;13.80;99.90;;;;;;5093103;28;20143;-67
2022/09/15 04:53:41;;;;;;;16.00;11.15;;;13.80;99.90;;;;;;5093504;28;20467;-67
2022/09/15 04:56:09;;;;;;;14.13;9.88;;;13.80;99.90;;;;;;5073879;28;20094;-66
2022/09/15 04:58:40;;;;;;;12.73;9.30;;;13.80;99.90;;;;;;5093451;28;20097;-66
2022/09/15 05:01:18;;;;;;;13.75;9.82;;;13.80;99.90;;;;;;5091708;28;20048;-66
2022/09/15 05:03:46;;;;;;;11.73;8.88;;;13.80;99.90;;;;;;5077500;28;20131;-66
2022/09/15 05:06:14;;;;;;;11.80;8.30;;;13.80;99.90;;;;;;5067852;28;20041;-66
2022/09/15 05:08:41;;;;;;;11.55;9.18;;;13.80;99.90;;;;;;5073526;28;20110;-66
2022/09/15 05:11:11;;;;;;;16.20;8.15;;;13.80;99.90;;;;;;5082920;28;20049;-66
2022/09/15 05:13:39;;;;;;;14.10;9.02;;;13.80;99.90;;;;;;5108876;28;20476;-67
2022/09/15 05:16:16;;;;;;;9.52;7.32;;;13.80;99.90;;;;;;5091845;28;20075;-66
2022/09/15 05:18:44;;;;;;;11.45;8.35;;;13.80;99.90;;;;;;5086675;28;20102;-67
2022/09/15 05:21:12;;;;;;;13.25;7.63;;;13.80;99.90;;;;;;5072265;28;20105;-66
2022/09/15 05:23:39;;;;;;;15.43;7.60;;;13.90;99.90;;;;;;5057082;28;20040;-66
2022/09/15 05:26:13;;;;;;;10.48;7.93;;;13.90;99.90;;;;;;5059338;28;20058;-66
2022/09/15 05:28:40;;;;;;;15.38;8.60;;;13.80;99.90;;;;;;5061061;28;20109;-66
2022/09/15 05:31:17;;;;;;;10.85;8.57;;;13.90;99.90;;;;;;5071325;28;20480;-66
2022/09/15 05:33:45;;;;;;;14.15;7.40;;;13.90;99.90;;;;;;5080619;28;20036;-66
2022/09/15 05:36:13;;;;;;;11.02;7.93;;;13.90;99.90;;;;;;5073659;28;20434;-66
2022/09/15 05:38:41;;;;;;;11.68;7.78;;;13.90;99.90;;;;;;5071680;28;20049;-66
2022/09/15 05:41:16;;;;;;;14.73;8.32;;;13.90;99.90;;;;;;5054874;28;20095;-66
2022/09/15 05:43:46;;;;;;;8.43;7.43;;;13.80;99.90;;;;;;5055049;28;20040;-66
2022/09/15 05:46:14;;;;;;;9.68;7.35;;;13.90;99.90;;;;;;5071277;28;20045;-66
2022/09/15 05:48:41;;;;;;;13.25;7.53;;;13.90;99.90;;;;;;5072432;28;20045;-67
2022/09/15 05:51:08;;;;;;;12.38;7.53;;;13.90;99.90;;;;;;5070064;28;20472;-67
2022/09/15 05:53:35;;;;;;;13.00;7.68;;;13.90;99.90;;;;;;5082630;28;20430;-67
2022/09/15 05:56:04;;;;;;;11.52;7.18;;;13.90;99.90;;;;;;5071030;28;20045;-67
2022/09/15 05:58:31;;;;;;;11.82;7.28;;;13.90;99.90;;;;;;5088073;28;20041;-66
2022/09/15 06:01:06;;;;;;;9.27;7.72;;;13.90;99.90;;;;;;5059834;28;20040;-67
2022/09/15 06:03:34;;;;;;;10.13;8.30;;;13.90;99.90;;;;;;5074410;28;20147;-67
2022/09/15 06:06:01;;;;;;;12.55;7.90;;;13.90;99.90;;;;;;5092417;28;20040;-67
2022/09/15 06:08:36;;;;;;;11.35;7.07;;;13.90;99.90;;;;;;5074246;28;20044;-66
2022/09/15 06:11:14;;;;;;;13.70;7.45;;;13.90;99.90;;;;;;5062591;28;20033;-67
2022/09/15 06:13:41;;;;;;;13.63;6.35;;;13.90;99.90;;;;;;5072064;28;20049;-67
2022/09/15 06:16:09;;;;;;;7.53;6.13;;;14.00;99.90;;;;;;5071079;28;20045;-66
2022/09/15 06:18:37;;;;;;;9.30;6.50;;;14.00;99.90;;;;;;5070592;28;20040;-67
2022/09/15 06:21:11;;;;;;;9.15;6.25;;;14.00;99.90;;;;;;5057396;28;20059;-67
2022/09/15 06:23:39;;;;;;;8.23;6.40;;;14.10;99.90;;;;;;5092089;28;20044;-66
2022/09/15 06:26:11;;;;;;;8.88;5.95;;;14.10;99.90;;;;;;5091042;28;20093;-67
2022/09/15 06:28:38;;;;;;;9.38;6.45;;;14.10;99.90;;;;;;5091773;28;20082;-66
2022/09/15 06:31:09;;;;;;;9.27;6.07;;;14.20;99.90;;;;;;5088581;28;20040;-66
2022/09/15 06:33:36;;;;;;;9.07;6.47;;;14.20;99.90;;;;;;5058036;28;20047;-66
2022/09/15 06:36:03;;;;;;;7.47;6.10;;;14.30;99.90;;;;;;5074172;28;20050;-66
2022/09/15 06:38:30;;;;;;;10.18;6.80;;;14.30;99.90;;;;;;5090750;28;20501;-66
2022/09/15 06:40:57;;;;;;;10.20;6.40;;;14.40;99.90;;;;;;5082102;28;20082;-66
2022/09/15 06:43:24;;;;;;;9.23;6.13;;;14.40;99.90;;;;;;5086296;28;20081;-66
2022/09/15 06:45:51;;;;;;;7.07;5.65;;;14.50;99.90;;;;;;5089395;28;20044;-67
2022/09/15 06:48:18;;;;;;;7.63;5.53;;;14.50;99.90;;;;;;5070176;28;20075;-68
2022/09/15 06:50:54;;;;;;;9.55;5.75;;;14.50;99.90;;;;;;5086251;28;20048;-67
2022/09/15 06:53:21;;;;;;;7.60;5.30;;;14.60;99.90;;;;;;5054475;28;20465;-67
2022/09/15 06:55:48;;;;;;;7.65;5.70;;;14.60;99.90;;;;;;5070026;28;20086;-67
2022/09/15 06:58:15;;;;;;;10.88;6.40;;;14.70;99.90;;;;;;5070547;28;20041;-67
2022/09/15 07:00:42;;;;;;;8.55;6.18;;;14.70;99.90;;;;;;5072061;28;20102;-67
2022/09/15 07:03:09;;;;;;;7.13;5.68;;;14.80;99.90;;;;;;5070420;28;20477;-67
2022/09/15 07:05:36;;;;;;;7.70;5.32;;;14.80;99.90;;;;;;5076377;28;20098;-67
2022/09/15 07:08:03;;;;;;;9.18;6.00;;;14.80;99.90;;;;;;5073922;28;20037;-67
2022/09/15 07:10:30;;;;;;;8.35;5.90;;;14.90;99.90;;;;;;5075040;28;20094;-67
2022/09/15 07:13:00;;;;;;;10.55;6.55;;;14.90;99.90;;;;;;5074527;28;20043;-67
2022/09/15 07:15:27;;;;;;;6.85;5.47;;;15.00;99.90;;;;;;5075624;28;20053;-67
2022/09/15 07:17:53;;;;;;;10.93;5.85;;;15.00;99.90;;;;;;5079731;28;20368;-68
2022/09/15 07:20:21;;;;;;;9.30;5.78;;;15.00;99.90;;;;;;5077017;28;20044;-68
2022/09/15 07:22:48;;;;;;;6.10;4.97;;;15.00;99.90;;;;;;5074895;28;20098;-68
2022/09/15 07:25:15;;;;;;;9.77;5.25;;;15.00;99.90;;;;;;5075547;28;20106;-69
2022/09/15 07:27:42;;;;;;;9.55;6.18;;;15.00;99.90;;;;;;5057687;28;20079;-66
2022/09/15 07:30:10;;;;;;;7.45;5.32;;;15.00;99.90;;;;;;5088120;28;20113;-66
2022/09/15 07:32:37;;;;;;;7.60;5.43;;;15.00;99.90;;;;;;5077375;28;20048;-67
2022/09/15 07:35:04;;;;;;;9.85;6.07;;;15.10;99.90;;;;;;5077487;28;20048;-67
2022/09/15 07:37:32;;;;;;;7.07;5.30;;;15.20;99.90;;;;;;5095371;28;20044;-67
2022/09/15 07:39:59;;;;;;;9.77;5.68;;;15.30;99.90;;;;;;5095111;28;20040;-67
2022/09/15 07:42:26;;;;;;;8.50;5.30;;;15.40;99.90;;;;;;5093353;28;20475;-67
2022/09/15 07:44:57;;;;;;;8.00;5.13;;;15.60;99.90;;;;;;5094939;28;20047;-67
2022/09/15 07:47:24;;;;;;;6.18;5.00;;;15.80;99.90;;;;;;5078251;28;20045;-67
2022/09/15 07:49:51;;;;;;;9.00;5.43;;;15.80;99.90;;;;;;5089420;28;20398;-67
2022/09/15 07:52:18;;;;;;;8.70;5.68;;;16.00;99.90;;;;;;5091946;28;20483;-67
2022/09/15 07:54:45;;;;;;;9.80;6.05;;;16.00;99.90;;;;;;5093844;28;20040;-67
2022/09/15 07:57:12;;;;;;;10.02;5.47;;;16.10;99.90;;;;;;5093825;28;20040;-67
2022/09/15 07:59:39;;;;;;;9.10;5.47;;;16.10;99.90;;;;;;5089657;28;20383;-67
2022/09/15 08:02:14;;;;;;;10.70;6.45;;;16.10;99.90;;;;;;5075322;28;20136;-67
2022/09/15 08:04:41;;;;;;;9.52;5.57;;;16.20;99.90;;;;;;5076974;28;20075;-67
2022/09/15 08:07:08;;;;;;;6.65;5.30;;;16.20;99.90;;;;;;5074755;28;20155;-67
2022/09/15 08:09:36;;;;;;;10.85;6.00;;;16.30;99.90;;;;;;5056419;28;20048;-67
2022/09/15 08:12:03;;;;;;;8.23;5.47;;;16.30;99.90;;;;;;5073154;28;20082;-67
2022/09/15 08:14:31;;;;;;;8.45;4.90;;;16.30;99.90;;;;;;5057711;28;20098;-67
2022/09/15 08:17:03;;;;;;;8.60;5.50;;;16.40;99.90;;;;;;5073376;28;20110;-67
2022/09/15 08:19:36;;;;;;;8.80;6.13;;;16.40;99.90;;;;;;5073191;28;20482;-67
2022/09/15 08:22:03;;;;;;;7.57;4.75;;;16.40;99.90;;;;;;5072485;28;20048;-67
2022/09/15 08:24:30;;;;;;;9.13;5.75;;;16.30;99.90;;;;;;5083660;28;20058;-67
2022/09/15 08:26:57;;;;;;;10.73;5.40;;;16.40;99.90;;;;;;5093310;28;20036;-67
2022/09/15 08:29:24;;;;;;;8.95;5.45;;;16.40;99.90;;;;;;5076162;28;20116;-67
2022/09/15 08:31:51;;;;;;;8.18;6.07;;;16.40;99.90;;;;;;5072681;28;20045;-67
2022/09/15 08:34:19;;;;;;;8.02;5.15;;;16.40;99.90;;;;;;5076332;28;20071;-67
2022/09/15 08:36:45;;;;;;;8.02;5.22;;;16.40;99.90;;;;;;5075754;28;20045;-67
2022/09/15 08:39:12;;;;;;;9.75;5.57;;;16.50;99.90;;;;;;5072476;28;20098;-67
2022/09/15 08:41:44;;;;;;;11.63;5.10;;;16.50;99.90;;;;;;5072260;28;20048;-67
2022/09/15 08:44:31;;;;;;;12.18;5.10;;;16.50;99.90;;;;;;5072958;28;20037;-67
2022/09/15 08:47:15;;;;;;;6.45;5.32;;;16.60;99.90;;;;;;5080880;28;20070;-67
2022/09/15 08:50:10;;;;;;;8.73;5.20;;;16.70;99.90;;;;;;5075047;28;20048;-67
2022/09/15 08:53:00;;;;;;;11.45;6.55;;;16.80;99.90;;;;;;5072754;28;20041;-67
2022/09/15 08:55:46;;;;;;;9.38;5.10;;;16.90;99.90;;;;;;5077120;28;20085;-67
2022/09/15 08:58:14;;;;;;;9.95;5.20;;;16.90;99.90;;;;;;5076502;28;20089;-68
2022/09/15 09:00:41;;;;;;;9.80;5.13;;;17.00;99.90;;;;;;5093455;28;20468;-67
2022/09/15 09:03:30;;;;;;;8.23;5.53;;;17.00;99.90;;;;;;5082047;28;20513;-67
2022/09/15 09:06:25;;;;;;;9.52;5.35;;;17.10;99.90;;;;;;5073041;28;20073;-67
2022/09/15 09:09:13;;;;;;;10.93;5.35;;;17.20;99.90;;;;;;5073956;28;20055;-67
2022/09/15 09:11:45;;;;;;;11.77;4.85;;;17.30;99.90;;;;;;5085289;28;20468;-67
2022/09/15 09:14:22;;;;;;;8.55;4.88;;;17.30;99.90;;;;;;5109013;28;20099;-67
2022/09/15 09:17:11;;;;;;;7.18;4.63;;;17.40;99.90;;;;;;5101866;28;20488;-67
2022/09/15 09:20:07;;;;;;;11.20;5.00;;;17.50;99.90;;;;;;5073321;28;20041;-67
2022/09/15 09:22:35;;;;;;;10.93;4.82;;;17.40;99.90;;;;;;5086506;28;20423;-67
2022/09/15 09:25:02;;;;;;;7.35;4.38;;;17.50;99.90;;;;;;5075408;28;20041;-67
2022/09/15 09:27:49;;;;;;;8.05;4.97;;;17.60;99.90;;;;;;5059761;28;20147;-67
2022/09/15 09:30:23;;;;;;;10.95;5.65;;;17.70;99.90;;;;;;5091892;28;20074;-67
2022/09/15 09:33:05;;;;;;;8.75;5.20;;;17.80;99.90;;;;;;5073159;28;20058;-67
2022/09/15 09:35:51;;;;;;;10.52;5.45;;;17.90;99.90;;;;;;5083833;28;20052;-67
2022/09/15 09:38:25;;;;;;;11.63;4.07;;;18.00;99.90;;;;;;5092040;28;20048;-67
2022/09/15 09:40:52;;;;;;;10.20;4.43;;;18.10;99.90;;;;;;5075575;28;20425;-67
2022/09/15 09:43:19;;;;;;;13.65;5.20;;;18.20;99.90;;;;;;5074829;28;20044;-68
2022/09/15 09:45:45;;;;;;;10.07;4.78;;;18.20;99.90;;;;;;5062381;28;20094;-68
2022/09/15 09:48:23;;;;;;;12.77;5.47;;;18.20;99.90;;;;;;5089233;28;20387;-67
2022/09/15 09:50:50;;;;;;;13.60;4.90;;;18.20;99.90;;;;;;5068933;28;20380;-67
2022/09/15 09:53:30;;;;;;;10.68;5.05;;;18.20;99.90;;;;;;5091575;28;20296;-67
2022/09/15 09:56:27;;;;;;;13.30;6.15;;;18.20;99.90;;;;;;5092231;28;20048;-68
2022/09/15 09:58:54;;;;;;;13.18;5.90;;;18.20;99.90;;;;;;5075930;28;20460;-67
2022/09/15 10:01:23;;;;;;;10.27;5.18;;;18.20;99.90;;;;;;5070898;28;20041;-67
2022/09/15 10:04:10;;;;;;;10.50;5.25;;;18.20;99.90;;;;;;5066669;28;20070;-67
2022/09/15 10:06:37;;;;;;;12.40;4.22;;;18.10;99.90;;;;;;5054748;28;20044;-67
2022/09/15 10:09:08;;;;;;;13.15;5.65;;;18.10;99.90;;;;;;5055538;28;20051;-67
2022/09/15 10:11:50;;;;;;;10.18;4.15;;;18.20;99.90;;;;;;5084648;28;20048;-67
2022/09/15 10:14:37;;;;;;;11.18;4.72;;;18.20;99.90;;;;;;5091287;28;20054;-67
2022/09/15 10:17:15;;;;;;;10.15;4.40;;;18.20;99.90;;;;;;5091096;28;20127;-67
2022/09/15 10:19:53;;;;;;;10.73;4.57;;;18.40;99.90;;;;;;5079381;28;20094;-68
2022/09/15 10:22:30;;;;;;;12.23;4.70;;;18.40;99.90;;;;;;5070662;28;20787;-68
2022/09/15 10:24:59;;;;;;;11.15;4.00;;;18.50;99.90;;;;;;5055280;28;20040;-67
2022/09/15 10:27:29;;;;;;;10.00;4.03;;;18.50;99.90;;;;;;5070436;28;20052;-67
2022/09/15 10:29:58;;;;;;;8.70;4.18;;;18.70;99.90;;;;;;5071924;28;20036;-67
2022/09/15 10:32:30;;;;;;;8.52;3.75;;;18.80;99.90;;;;;;5081141;28;20094;-67
2022/09/15 10:34:59;;;;;;;12.00;5.05;;;18.80;99.90;;;;;;5078150;28;20392;-67
2022/09/15 10:37:44;;;;;;;13.20;4.45;;;18.80;99.90;;;;;;5064670;28;20079;-67
2022/09/15 10:40:29;;;;;;;10.27;4.35;;;18.80;99.90;;;;;;5071460;28;20048;-67
2022/09/15 10:43:09;;;;;;;10.20;4.45;;;18.80;99.90;;;;;;5070864;28;20072;-67
2022/09/15 10:45:39;;;;;;;;;;;18.90;99.90;;;;;;5086761;28;20051;-67
2022/09/15 10:48:30;;;;;;;9.15;4.68;;;18.90;99.90;;;;;;5070430;28;19916;-67
2022/09/15 10:51:14;;;;;;;7.53;4.30;;;19.00;99.90;;;;;;5070511;28;20106;-68
2022/09/15 10:53:56;;;;;;;8.38;4.68;;;19.00;99.90;;;;;;5084134;28;20048;-67
2022/09/15 10:56:28;;;;;;;5.95;3.58;;;19.00;99.90;;;;;;5070355;28;20037;-67
2022/09/15 10:59:20;;;;;;;7.85;4.32;;;19.00;99.90;;;;;;5087374;28;20044;-67
2022/09/15 11:01:57;;;;;;;7.60;3.92;;;19.00;99.90;;;;;;5086480;28;20049;-67
2022/09/15 11:04:56;;;;;;;8.38;4.38;;;19.00;99.90;;;;;;5089115;28;20036;-67
2022/09/15 11:07:37;;;;;;;10.30;3.72;;;19.00;99.90;;;;;;5070506;28;20051;-67
2022/09/15 11:10:03;;;;;;;10.23;4.65;;;19.00;99.90;;;;;;5060025;28;20039;-67
2022/09/15 11:13:01;;;;;;;8.45;3.47;;;19.10;99.90;;;;;;5089774;28;20532;-67
2022/09/15 11:16:05;;;;;;;5.50;2.60;;;19.10;99.90;;;;;;5070413;28;20048;-67
2022/09/15 11:18:44;;;;;;;11.38;4.78;;;19.10;99.90;;;;;;5070156;28;20542;-67
2022/09/15 11:21:21;;;;;;;7.93;3.97;;;19.10;99.90;;;;;;5071187;28;20071;-67
2022/09/15 11:23:51;;;;;;;9.95;3.47;;;19.20;99.90;;;;;;5072161;28;20036;-67
2022/09/15 11:26:29;;;;;;;7.72;2.80;;;19.20;99.90;;;;;;5071799;28;20090;-67
2022/09/15 11:29:00;;;;;;;8.68;3.50;;;19.40;99.90;;;;;;5070537;28;20049;-67
2022/09/15 11:31:38;;;;;;;6.07;3.40;;;19.40;99.90;;;;;;5076855;28;20098;-67
2022/09/15 11:34:11;;;;;;;7.30;3.83;;;19.60;99.90;;;;;;5075107;28;20044;-67
2022/09/15 11:37:18;;;;;;;6.78;3.10;;;19.60;99.90;;;;;;5070584;28;20045;-67
2022/09/15 11:39:55;;;;;;;7.30;3.88;;;19.40;99.90;;;;;;5084142;28;20089;-67
2022/09/15 11:42:45;;;;;;;5.70;2.75;;;19.50;99.90;;;;;;5090276;28;20127;-67
2022/09/15 11:45:19;;;;;;;10.02;2.70;;;19.60;99.90;;;;;;5073650;28;20051;-67
2022/09/15 11:47:51;;;;;;;6.30;2.60;;;19.60;99.90;;;;;;5070612;28;20418;-67
2022/09/15 11:50:19;;;;;;;6.45;3.25;;;19.60;99.90;;;;;;5075831;28;20044;-67
2022/09/15 11:53:08;;;;;;;5.80;3.10;;;19.60;99.90;;;;;;5060661;28;20862;-67
2022/09/15 11:55:50;;;;;;;5.82;3.38;;;19.60;99.90;;;;;;5058867;28;20476;-67
2022/09/15 11:58:51;;;;;;;9.52;3.97;;;19.50;99.90;;;;;;5057003;28;20055;-67
2022/09/15 12:01:28;;;;;;;7.22;3.60;;;19.50;99.90;;;;;;5074027;28;20471;-67
2022/09/15 12:04:13;;;;;;;7.50;3.83;;;19.50;99.90;;;;;;5077278;28;20451;-67
2022/09/15 12:06:41;;;;;;;10.35;4.30;;;19.50;99.90;;;;;;5070676;28;20079;-67
2022/09/15 12:09:15;;;;;;;5.93;4.18;;;19.50;99.90;;;;;;5077199;28;20056;-67
2022/09/15 12:11:47;;;;;;;7.57;4.68;;;19.40;99.90;;;;;;5093860;28;20055;-67
2022/09/15 12:14:34;;;;;;;7.10;4.70;;;19.30;99.90;;;;;;5094477;28;20097;-67
2022/09/15 12:17:03;;;;;;;11.55;4.32;;;19.30;99.90;;;;;;5099065;28;20477;-67
2022/09/15 12:19:46;;;;;;;10.32;4.32;;;19.30;99.90;;;;;;5072864;28;20105;-67
2022/09/15 12:22:30;;;;;;;10.75;3.72;;;19.30;99.90;;;;;;5057289;28;20434;-67
2022/09/15 12:25:00;;;;;;;5.75;3.67;;;19.10;99.90;;;;;;5093014;28;20040;-67
2022/09/15 12:27:27;;;;;;;6.88;4.05;;;19.10;99.90;;;;;;5087353;28;20045;-67
2022/09/15 12:29:55;;;;;;;10.90;3.70;;;19.10;99.90;;;;;;5073267;28;20456;-67
2022/09/15 12:32:29;;;;;;;5.43;2.70;;;19.10;99.90;;;;;;5078877;28;20041;-67
2022/09/15 12:35:00;;;;;;;6.93;3.63;;;19.10;99.90;;;;;;5080444;28;20102;-67
2022/09/15 12:37:41;;;;;;;6.85;3.92;;;19.10;99.90;;;;;;5090551;28;20049;-67
2022/09/15 12:40:29;;;;;;;9.35;4.07;;;19.20;99.90;;;;;;5088023;28;20093;-67
2022/09/15 12:42:56;;;;;;;6.17;3.57;;;19.20;99.90;;;;;;5093084;28;20075;-67
2022/09/15 12:45:30;;;;;;;7.07;2.65;;;19.30;99.90;;;;;;5092782;28;20483;-67
2022/09/15 12:48:10;;;;;;;8.05;3.40;;;19.40;99.90;;;;;;5091469;28;20040;-67
2022/09/15 12:50:39;;;;;;;5.45;3.10;;;19.50;99.90;;;;;;5072480;28;20090;-67
2022/09/15 12:53:28;;;;;;;8.20;3.65;;;19.60;99.90;;;;;;5039547;28;20052;-67
2022/09/15 12:56:09;;;;;;;8.60;3.13;;;19.70;99.90;;;;;;5072178;28;20465;-68
2022/09/15 12:58:37;;;;;;;5.88;2.80;;;19.70;99.90;;;;;;5073467;28;20082;-68
2022/09/15 13:01:25;;;;;;;5.75;2.92;;;19.60;99.90;;;;;;5080501;28;20118;-67
2022/09/15 13:03:56;;;;;;;6.70;3.15;;;19.50;99.90;;;;;;5076030;28;20045;-67
2022/09/15 13:06:31;;;;;;;5.85;2.90;;;19.50;99.90;;;;;;5074364;28;20080;-67